Time;durP1;ratioP1;P1;durP2;ratioP2;P2;SDS_P1;SDS_P2;PMS_P1;PMS_P2;Temp;Humidity;BMP_temperature;BMP_pressure;BME280_temperature;BME280_humidity;BME280_pressure;Samples;Min_cycle;Max_cycle;Signal;HPM_P1;HPM_P2
2024/04/20 00:02:14;;;;;;;56.50;3.97;;;;;;;;;;5360421;26;20315;-67
2024/04/20 00:04:43;;;;;;;58.23;4.03;;;;;;;;;;5360080;26;20480;-68
2024/04/20 00:07:12;;;;;;;57.77;4.23;;;;;;;;;;5360249;26;20583;-67
2024/04/20 00:09:43;;;;;;;58.50;4.20;;;;;;;;;;5359939;26;20475;-68
2024/04/20 00:12:14;;;;;;;60.20;4.10;;;;;;;;;;5360183;26;20536;-67
2024/04/20 00:14:43;;;;;;;58.17;4.50;;;;;;;;;;5360091;26;20539;-67
2024/04/20 00:17:12;;;;;;;61.07;4.73;;;;;;;;;;5359644;26;20491;-68
2024/04/20 00:19:41;;;;;;;56.97;4.40;;;;;;;;;;5359673;26;20487;-68
2024/04/20 00:22:09;;;;;;;57.20;4.57;;;;;;;;;;5360289;26;20855;-68
2024/04/20 00:24:38;;;;;;;58.50;5.63;;;;;;;;;;5359164;26;20572;-68
2024/04/20 00:27:10;;;;;;;58.90;4.40;;;;;;;;;;5358965;26;20870;-67
2024/04/20 00:29:39;;;;;;;59.60;4.93;;;;;;;;;;5360140;26;20487;-68
2024/04/20 00:32:08;;;;;;;57.87;4.37;;;;;;;;;;5359160;26;20479;-68
2024/04/20 00:34:37;;;;;;;60.97;5.00;;;;;;;;;;5359116;26;20622;-68
2024/04/20 00:37:06;;;;;;;63.00;5.20;;;;;;;;;;5354834;26;20525;-68
2024/04/20 00:39:35;;;;;;;60.50;4.73;;;;;;;;;;5358802;26;20475;-68
2024/04/20 00:42:08;;;;;;;57.70;4.30;;;;;;;;;;5359284;26;20467;-68
2024/04/20 00:44:40;;;;;;;60.90;5.10;;;;;;;;;;5358923;26;20588;-68
2024/04/20 00:47:09;;;;;;;63.60;5.00;;;;;;;;;;5359224;26;20582;-69
2024/04/20 00:49:38;;;;;;;62.50;4.60;;;;;;;;;;5359559;26;20484;-69
2024/04/20 00:52:09;;;;;;;58.40;4.40;;;;;;;;;;5359900;26;20471;-68
2024/04/20 00:54:39;;;;;;;62.03;4.77;;;;;;;;;;5359520;26;20471;-68
2024/04/20 00:57:08;;;;;;;58.23;4.13;;;;;;;;;;5358962;26;20518;-68
2024/04/20 00:59:40;;;;;;;63.00;4.70;;;;;;;;;;5359407;26;20475;-68
2024/04/20 01:02:09;;;;;;;57.73;4.20;;;;;;;;;;5358612;26;20464;-68
2024/04/20 01:04:38;;;;;;;59.70;5.37;;;;;;;;;;5358577;26;20483;-68
2024/04/20 01:07:06;;;;;;;66.17;4.63;;;;;;;;;;5357903;26;20475;-68
2024/04/20 01:09:35;;;;;;;59.73;4.50;;;;;;;;;;5358266;26;20487;-68
2024/04/20 01:12:04;;;;;;;60.77;4.73;;;;;;;;;;5358143;26;20599;-68
2024/04/20 01:14:33;;;;;;;62.30;4.18;;;;;;;;;;5357624;26;20487;-69
2024/04/20 01:17:05;;;;;;;58.43;4.00;;;;;;;;;;5343856;26;20256;-68
2024/04/20 01:19:34;;;;;;;61.33;4.30;;;;;;;;;;5357789;26;20524;-68
2024/04/20 01:22:04;;;;;;;60.27;4.50;;;;;;;;;;5356460;26;21078;-68
2024/04/20 01:24:32;;;;;;;59.90;3.90;;;;;;;;;;5356825;26;20487;-68
2024/04/20 01:27:04;;;;;;;57.43;3.70;;;;;;;;;;5356614;26;20555;-68
2024/04/20 01:29:33;;;;;;;63.07;4.97;;;;;;;;;;5356975;26;20489;-68
2024/04/20 01:32:01;;;;;;;58.43;4.43;;;;;;;;;;5356663;26;20491;-69
2024/04/20 01:34:30;;;;;;;56.80;3.80;;;;;;;;;;5357170;26;20559;-68
2024/04/20 01:36:56;;;;;;;57.80;4.40;;;;;;;;;;5355850;26;20572;-68
2024/04/20 01:39:25;;;;;;;58.00;4.30;;;;;;;;;;5355121;26;20531;-68
2024/04/20 01:41:54;;;;;;;59.47;4.30;;;;;;;;;;5355768;26;20480;-68
2024/04/20 01:44:25;;;;;;;57.25;3.83;;;;;;;;;;5355830;26;20883;-68
2024/04/20 01:46:54;;;;;;;57.33;4.10;;;;;;;;;;5355126;26;20690;-68
2024/04/20 01:49:23;;;;;;;57.27;4.40;;;;;;;;;;5356392;26;20331;-69
2024/04/20 01:51:51;;;;;;;59.53;4.70;;;;;;;;;;5356014;26;20562;-68
2024/04/20 01:54:20;;;;;;;62.47;4.33;;;;;;;;;;5356096;26;20497;-68
2024/04/20 01:56:49;;;;;;;57.38;4.03;;;;;;;;;;5358206;26;20618;-69
2024/04/20 01:59:17;;;;;;;61.10;4.60;;;;;;;;;;5359190;26;20233;-68
2024/04/20 02:01:51;;;;;;;57.70;4.87;;;;;;;;;;5357790;26;21045;-68
2024/04/20 02:04:20;;;;;;;58.27;4.37;;;;;;;;;;5358236;26;20539;-68
2024/04/20 02:06:49;;;;;;;57.35;3.88;;;;;;;;;;5358312;26;20575;-68
2024/04/20 02:09:17;;;;;;;59.43;4.13;;;;;;;;;;5353322;26;20275;-68
2024/04/20 02:11:46;;;;;;;57.40;3.77;;;;;;;;;;5350464;26;20465;-69
2024/04/20 02:14:15;;;;;;;60.83;4.13;;;;;;;;;;5358370;26;20976;-68
2024/04/20 02:16:43;;;;;;;56.70;3.60;;;;;;;;;;5357545;26;20479;-69
2024/04/20 02:19:15;;;;;;;57.70;4.40;;;;;;;;;;5358547;26;20575;-68
2024/04/20 02:21:44;;;;;;;58.63;3.43;;;;;;;;;;5358063;26;20889;-68
2024/04/20 02:24:13;;;;;;;58.97;3.63;;;;;;;;;;5358826;26;20539;-68
2024/04/20 02:26:41;;;;;;;57.90;3.67;;;;;;;;;;5357935;26;20535;-68
2024/04/20 02:29:10;;;;;;;59.50;4.27;;;;;;;;;;5348531;26;20565;-68
2024/04/20 02:31:39;;;;;;;61.33;3.70;;;;;;;;;;5359356;26;20536;-68
2024/04/20 02:34:08;;;;;;;57.23;3.80;;;;;;;;;;5357535;26;20961;-69
2024/04/20 02:36:39;;;;;;;57.73;3.83;;;;;;;;;;5358385;26;20475;-69
2024/04/20 02:39:08;;;;;;;58.27;3.63;;;;;;;;;;5342256;26;20475;-68
2024/04/20 02:41:37;;;;;;;60.03;3.73;;;;;;;;;;5352042;26;20585;-68
2024/04/20 02:44:06;;;;;;;60.03;4.00;;;;;;;;;;5358291;26;20532;-68
2024/04/20 02:46:34;;;;;;;58.97;4.53;;;;;;;;;;5356618;26;20526;-68
2024/04/20 02:49:03;;;;;;;58.10;3.83;;;;;;;;;;5343257;26;21145;-68
2024/04/20 02:51:32;;;;;;;58.87;3.60;;;;;;;;;;5354959;26;20499;-68
2024/04/20 02:54:03;;;;;;;58.80;3.53;;;;;;;;;;5358011;26;20484;-68
2024/04/20 02:56:32;;;;;;;59.83;3.93;;;;;;;;;;5357837;26;20917;-68
2024/04/20 02:59:01;;;;;;;60.40;4.00;;;;;;;;;;5358459;26;20585;-68
2024/04/20 03:01:29;;;;;;;58.63;3.90;;;;;;;;;;5356971;26;20483;-68
2024/04/20 03:03:58;;;;;;;59.13;4.33;;;;;;;;;;5357667;26;20523;-68
2024/04/20 03:06:27;;;;;;;58.70;4.10;;;;;;;;;;5357446;26;20487;-68
2024/04/20 03:08:56;;;;;;;58.20;4.30;;;;;;;;;;5358012;26;20496;-68
2024/04/20 03:11:27;;;;;;;58.13;4.03;;;;;;;;;;5351877;26;20479;-69
2024/04/20 03:13:56;;;;;;;57.83;3.93;;;;;;;;;;5356944;26;20479;-68
2024/04/20 03:16:25;;;;;;;61.45;3.72;;;;;;;;;;5357118;26;20563;-68
2024/04/20 03:18:54;;;;;;;57.67;5.10;;;;;;;;;;5357378;26;20241;-69
2024/04/20 03:21:22;;;;;;;57.07;4.10;;;;;;;;;;5357735;26;20476;-68
2024/04/20 03:23:51;;;;;;;57.70;3.80;;;;;;;;;;5357740;26;20463;-68
2024/04/20 03:26:20;;;;;;;67.85;3.85;;;;;;;;;;5350765;26;20575;-68
2024/04/20 03:28:51;;;;;;;62.50;4.47;;;;;;;;;;5353540;26;20308;-68
2024/04/20 03:31:20;;;;;;;58.50;3.73;;;;;;;;;;5357057;26;20554;-68
2024/04/20 03:33:49;;;;;;;57.57;4.30;;;;;;;;;;5356537;26;20464;-68
2024/04/20 03:36:19;;;;;;;59.00;3.90;;;;;;;;;;5356487;26;20590;-68
2024/04/20 03:38:49;;;;;;;67.07;4.67;;;;;;;;;;5356281;26;20472;-68
2024/04/20 03:41:18;;;;;;;60.30;3.70;;;;;;;;;;5356568;26;20523;-69
2024/04/20 03:43:46;;;;;;;57.27;3.33;;;;;;;;;;5354696;26;20460;-68
2024/04/20 03:46:15;;;;;;;60.53;4.80;;;;;;;;;;5356304;26;20472;-69
2024/04/20 03:48:44;;;;;;;58.10;4.03;;;;;;;;;;5358760;26;20523;-69
2024/04/20 03:51:13;;;;;;;57.27;3.70;;;;;;;;;;5356211;26;20475;-68
2024/04/20 03:53:41;;;;;;;57.17;4.37;;;;;;;;;;5356564;26;20528;-68
2024/04/20 03:56:10;;;;;;;61.30;4.50;;;;;;;;;;5353615;26;20683;-69
2024/04/20 03:58:39;;;;;;;60.50;4.37;;;;;;;;;;5356124;26;20567;-68
2024/04/20 04:01:07;;;;;;;57.65;3.83;;;;;;;;;;5342148;26;20812;-68
2024/04/20 04:03:39;;;;;;;65.57;4.28;;;;;;;;;;5355815;26;20354;-69
2024/04/20 04:06:08;;;;;;;57.15;3.90;;;;;;;;;;5355921;26;20241;-68
2024/04/20 04:08:37;;;;;;;57.92;3.72;;;;;;;;;;5355837;26;20245;-68
2024/04/20 04:11:05;;;;;;;67.15;4.63;;;;;;;;;;5355892;26;20241;-69
2024/04/20 04:13:34;;;;;;;61.35;4.22;;;;;;;;;;5355502;26;20241;-69
2024/04/20 04:16:03;;;;;;;69.53;3.60;;;;;;;;;;5349112;26;20249;-69
2024/04/20 04:18:32;;;;;;;58.27;4.07;;;;;;;;;;5355433;26;20499;-68
2024/04/20 04:21:03;;;;;;;59.40;3.80;;;;;;;;;;5356028;26;20487;-68
2024/04/20 04:23:32;;;;;;;58.17;3.93;;;;;;;;;;5356082;26;20491;-68
2024/04/20 04:26:02;;;;;;;59.13;4.50;;;;;;;;;;5356186;26;20484;-68
2024/04/20 04:28:30;;;;;;;57.80;4.10;;;;;;;;;;5356430;26;20526;-68
2024/04/20 04:30:59;;;;;;;62.63;4.40;;;;;;;;;;5353780;26;20502;-68
2024/04/20 04:33:28;;;;;;;64.57;4.80;;;;;;;;;;5355785;26;20590;-68
2024/04/20 04:35:59;;;;;;;60.73;4.33;;;;;;;;;;5346776;26;20529;-69
2024/04/20 04:38:31;;;;;;;58.90;4.20;;;;;;;;;;5356281;26;20491;-68
2024/04/20 04:41:00;;;;;;;59.10;4.03;;;;;;;;;;5356919;26;20568;-68
2024/04/20 04:43:28;;;;;;;63.57;4.60;;;;;;;;;;5355607;26;20523;-69
2024/04/20 04:45:57;;;;;;;58.40;5.37;;;;;;;;;;5356417;26;20480;-68
2024/04/20 04:48:28;;;;;;;61.93;4.90;;;;;;;;;;5355729;26;20524;-68
2024/04/20 04:50:57;;;;;;;60.40;4.20;;;;;;;;;;5356431;26;20519;-68
2024/04/20 04:53:25;;;;;;;58.03;4.15;;;;;;;;;;5357924;26;20472;-68
2024/04/20 04:55:57;;;;;;;58.38;5.45;;;;;;;;;;5355352;26;20284;-69
2024/04/20 04:58:26;;;;;;;58.08;3.42;;;;;;;;;;5356485;26;20311;-68
2024/04/20 05:00:54;;;;;;;58.80;3.83;;;;;;;;;;5356351;26;20327;-68
2024/04/20 05:03:23;;;;;;;61.17;4.67;;;;;;;;;;5356521;26;20484;-68
2024/04/20 05:05:52;;;;;;;56.77;4.30;;;;;;;;;;5355786;26;21030;-68
2024/04/20 05:08:20;;;;;;;58.28;4.53;;;;;;;;;;5355687;26;20483;-68
2024/04/20 05:10:49;;;;;;;62.27;5.07;;;;;;;;;;5355610;26;20347;-68
2024/04/20 05:13:21;;;;;;;58.37;3.83;;;;;;;;;;5355225;26;20479;-68
2024/04/20 05:15:49;;;;;;;59.10;4.10;;;;;;;;;;5356116;26;20483;-67
2024/04/20 05:18:20;;;;;;;58.67;3.53;;;;;;;;;;5342455;26;20605;-67
2024/04/20 05:20:48;;;;;;;57.70;3.73;;;;;;;;;;5350552;26;20483;-67
2024/04/20 05:23:17;;;;;;;58.53;4.75;;;;;;;;;;5355912;26;20579;-67
2024/04/20 05:25:46;;;;;;;57.30;4.00;;;;;;;;;;5355862;26;20245;-68
2024/04/20 05:28:15;;;;;;;58.73;3.57;;;;;;;;;;5355314;26;20488;-67
2024/04/20 05:30:47;;;;;;;58.80;4.40;;;;;;;;;;5356012;26;20561;-68
2024/04/20 05:33:16;;;;;;;60.43;3.97;;;;;;;;;;5359044;26;20522;-68
2024/04/20 05:35:45;;;;;;;59.07;3.60;;;;;;;;;;5357807;26;20475;-67
2024/04/20 05:38:13;;;;;;;56.53;3.30;;;;;;;;;;5357538;26;20475;-67
2024/04/20 05:40:42;;;;;;;58.00;4.03;;;;;;;;;;5358421;26;20603;-67
2024/04/20 05:43:11;;;;;;;57.27;3.63;;;;;;;;;;5357658;26;20531;-67
2024/04/20 05:45:40;;;;;;;58.45;3.60;;;;;;;;;;5358107;26;20526;-67
2024/04/20 05:48:11;;;;;;;56.17;3.30;;;;;;;;;;5357212;26;20602;-68
2024/04/20 05:50:40;;;;;;;57.57;3.30;;;;;;;;;;5357633;26;20479;-67
2024/04/20 05:53:09;;;;;;;57.37;3.73;;;;;;;;;;5358043;26;20483;-67
2024/04/20 05:55:38;;;;;;;57.30;3.90;;;;;;;;;;5358294;26;20464;-67
2024/04/20 05:58:07;;;;;;;56.00;3.60;;;;;;;;;;5357047;26;20475;-68
2024/04/20 06:00:35;;;;;;;60.10;4.23;;;;;;;;;;5357680;26;20480;-67
2024/04/20 06:03:04;;;;;;;58.30;3.43;;;;;;;;;;5357363;26;20525;-67
2024/04/20 06:05:35;;;;;;;61.20;3.63;;;;;;;;;;5357699;26;20868;-67
2024/04/20 06:08:04;;;;;;;57.67;3.70;;;;;;;;;;5356837;26;20889;-67
2024/04/20 06:10:33;;;;;;;57.77;3.67;;;;;;;;;;5357409;26;20475;-67
2024/04/20 06:13:02;;;;;;;57.73;4.10;;;;;;;;;;5356331;26;20487;-67
2024/04/20 06:15:33;;;;;;;60.90;5.10;;;;;;;;;;5356681;26;20483;-68
2024/04/20 06:18:02;;;;;;;58.47;3.90;;;;;;;;;;5356610;26;20554;-68
2024/04/20 06:20:31;;;;;;;59.87;4.70;;;;;;;;;;5355954;26;20522;-68
2024/04/20 06:23:02;;;;;;;62.00;5.37;;;;;;;;;;5357026;26;20467;-67
2024/04/20 06:25:31;;;;;;;60.20;4.17;;;;;;;;;;5356727;26;20527;-67
2024/04/20 06:28:00;;;;;;;59.17;4.70;;;;;;;;;;5356364;26;20491;-67
2024/04/20 06:30:29;;;;;;;57.40;4.57;;;;;;;;;;5346089;26;20471;-67
2024/04/20 06:32:58;;;;;;;59.77;4.70;;;;;;;;;;5356020;26;20483;-68
2024/04/20 06:35:27;;;;;;;58.63;3.90;;;;;;;;;;5356274;26;20528;-68
2024/04/20 06:37:56;;;;;;;57.63;4.10;;;;;;;;;;5355921;26;20476;-67
2024/04/20 06:40:28;;;;;;;56.47;3.83;;;;;;;;;;5348851;26;20998;-68
2024/04/20 06:42:57;;;;;;;60.00;4.67;;;;;;;;;;5354553;26;20471;-68
2024/04/20 06:45:26;;;;;;;60.93;4.23;;;;;;;;;;5355714;26;20471;-68
2024/04/20 06:47:57;;;;;;;64.03;5.23;;;;;;;;;;5355378;26;21093;-68
2024/04/20 06:50:25;;;;;;;58.50;4.27;;;;;;;;;;5354140;26;20463;-69
2024/04/20 06:52:54;;;;;;;58.77;4.40;;;;;;;;;;5354163;26;20597;-68
2024/04/20 06:55:23;;;;;;;58.17;4.00;;;;;;;;;;5354307;26;20487;-68
2024/04/20 06:57:54;;;;;;;60.70;4.63;;;;;;;;;;5354241;26;20583;-68
2024/04/20 07:00:23;;;;;;;58.10;4.00;;;;;;;;;;5354179;26;20464;-68
2024/04/20 07:02:52;;;;;;;57.60;3.83;;;;;;;;;;5354238;26;20483;-68
2024/04/20 07:05:20;;;;;;;58.37;4.40;;;;;;;;;;5354243;26;20491;-69
2024/04/20 07:07:49;;;;;;;57.63;4.00;;;;;;;;;;5354165;26;20536;-68
2024/04/20 07:10:18;;;;;;;56.70;3.60;;;;;;;;;;5340148;26;20571;-68
2024/04/20 07:12:47;;;;;;;57.00;3.60;;;;;;;;;;5354387;26;20584;-68
2024/04/20 07:15:18;;;;;;;57.90;4.10;;;;;;;;;;5354406;26;20568;-68
2024/04/20 07:17:48;;;;;;;57.47;3.63;;;;;;;;;;5353913;26;20480;-68
2024/04/20 07:20:18;;;;;;;56.27;3.40;;;;;;;;;;5354204;26;20525;-68
2024/04/20 07:22:47;;;;;;;56.27;3.47;;;;;;;;;;5353307;26;20867;-68
2024/04/20 07:25:15;;;;;;;57.30;3.67;;;;;;;;;;5353680;26;20524;-69
2024/04/20 07:27:44;;;;;;;56.50;3.27;;;;;;;;;;5354266;26;20491;-68
2024/04/20 07:30:13;;;;;;;57.87;3.30;;;;;;;;;;5353747;26;20495;-68
2024/04/20 07:32:44;;;;;;;57.60;3.60;;;;;;;;;;5353393;26;20492;-68
2024/04/20 07:35:13;;;;;;;56.80;3.50;;;;;;;;;;5353509;26;20480;-68
2024/04/20 07:37:42;;;;;;;57.30;3.27;;;;;;;;;;5352174;26;20890;-68
2024/04/20 07:40:11;;;;;;;59.70;3.90;;;;;;;;;;5352247;26;20598;-68
2024/04/20 07:42:40;;;;;;;57.30;3.37;;;;;;;;;;5352761;26;20575;-68
2024/04/20 07:45:08;;;;;;;58.70;3.37;;;;;;;;;;5352681;26;20491;-68
2024/04/20 07:47:38;;;;;;;61.97;3.53;;;;;;;;;;5351673;26;21022;-68
2024/04/20 07:50:12;;;;;;;60.90;3.93;;;;;;;;;;5351935;26;20554;-68
2024/04/20 07:52:41;;;;;;;57.77;4.00;;;;;;;;;;5351532;26;20475;-68
2024/04/20 07:55:10;;;;;;;60.67;4.00;;;;;;;;;;5352458;26;20532;-68
2024/04/20 07:57:38;;;;;;;58.17;3.97;;;;;;;;;;5351916;26;20488;-68
2024/04/20 08:00:08;;;;;;;57.53;3.67;;;;;;;;;;5352678;26;20484;-68
2024/04/20 08:02:36;;;;;;;57.00;4.10;;;;;;;;;;5351798;26;20524;-69
2024/04/20 08:05:06;;;;;;;59.20;3.70;;;;;;;;;;5351665;26;21067;-68
2024/04/20 08:07:37;;;;;;;60.37;3.90;;;;;;;;;;5350847;26;20491;-68
2024/04/20 08:10:06;;;;;;;59.70;4.40;;;;;;;;;;5350533;26;20599;-68
2024/04/20 08:12:35;;;;;;;56.80;3.70;;;;;;;;;;5350229;26;20476;-68
2024/04/20 08:15:04;;;;;;;56.70;3.93;;;;;;;;;;5351020;26;20468;-68
2024/04/20 08:17:34;;;;;;;58.87;5.30;;;;;;;;;;5350205;26;21062;-68
2024/04/20 08:20:03;;;;;;;62.57;3.80;;;;;;;;;;5350104;26;20476;-68
2024/04/20 08:22:32;;;;;;;59.17;4.33;;;;;;;;;;5351265;26;20468;-68
2024/04/20 08:25:03;;;;;;;57.17;3.83;;;;;;;;;;5351475;26;20483;-68
2024/04/20 08:27:32;;;;;;;57.63;3.83;;;;;;;;;;5351489;26;20496;-69
2024/04/20 08:30:01;;;;;;;57.13;3.43;;;;;;;;;;5351583;26;20460;-68
2024/04/20 08:32:29;;;;;;;56.57;3.50;;;;;;;;;;5351057;26;20491;-68
2024/04/20 08:34:58;;;;;;;56.57;3.00;;;;;;;;;;5351542;26;20487;-68
2024/04/20 08:37:27;;;;;;;56.20;3.63;;;;;;;;;;5349983;26;20520;-68
2024/04/20 08:39:56;;;;;;;62.07;4.63;;;;;;;;;;5351411;26;20475;-68
2024/04/20 08:42:32;;;;;;;57.00;3.93;;;;;;;;;;5350454;26;20476;-68
2024/04/20 08:45:03;;;;;;;56.60;3.43;;;;;;;;;;5350169;26;20491;-68
2024/04/20 08:47:33;;;;;;;56.80;2.93;;;;;;;;;;5349088;26;20535;-68
2024/04/20 08:50:03;;;;;;;57.83;3.33;;;;;;;;;;5349892;26;20516;-68
2024/04/20 08:52:33;;;;;;;57.63;3.97;;;;;;;;;;5350502;26;20582;-68
2024/04/20 08:55:01;;;;;;;58.70;3.87;;;;;;;;;;5351225;26;20510;-69
2024/04/20 08:57:37;;;;;;;60.07;3.97;;;;;;;;;;5351311;26;20472;-68
2024/04/20 09:00:06;;;;;;;57.40;3.20;;;;;;;;;;5351360;26;20480;-69
2024/04/20 09:02:39;;;;;;;57.13;3.97;;;;;;;;;;5350450;26;20617;-69
2024/04/20 09:05:08;;;;;;;56.70;3.20;;;;;;;;;;5350394;26;20479;-69
2024/04/20 09:07:37;;;;;;;58.47;3.70;;;;;;;;;;5351574;26;20576;-69
2024/04/20 09:10:06;;;;;;;60.80;3.70;;;;;;;;;;5352273;26;20578;-69
2024/04/20 09:12:38;;;;;;;56.87;3.60;;;;;;;;;;5352482;26;20538;-69
2024/04/20 09:15:08;;;;;;;56.67;4.63;;;;;;;;;;5351715;26;20571;-69
2024/04/20 09:17:37;;;;;;;57.87;3.90;;;;;;;;;;5351662;26;20526;-69
2024/04/20 09:20:05;;;;;;;59.17;3.60;;;;;;;;;;5350721;26;20483;-69
2024/04/20 09:22:35;;;;;;;57.40;4.10;;;;;;;;;;5350963;26;20476;-69
2024/04/20 09:25:05;;;;;;;56.20;3.57;;;;;;;;;;5350994;26;20483;-68
2024/04/20 09:27:33;;;;;;;57.80;3.83;;;;;;;;;;5351657;26;20487;-69
2024/04/20 09:30:06;;;;;;;56.97;3.43;;;;;;;;;;5352434;26;20558;-69
2024/04/20 09:32:34;;;;;;;58.47;4.17;;;;;;;;;;5350264;26;20475;-69
2024/04/20 09:35:05;;;;;;;56.93;3.30;;;;;;;;;;5351506;26;20476;-67
2024/04/20 09:37:34;;;;;;;59.83;3.57;;;;;;;;;;5349845;26;20527;-68
2024/04/20 09:40:02;;;;;;;56.63;3.37;;;;;;;;;;5351351;26;20606;-68
2024/04/20 09:42:32;;;;;;;56.20;3.10;;;;;;;;;;5350551;26;20564;-69
2024/04/20 09:45:04;;;;;;;55.60;2.93;;;;;;;;;;5350999;26;20480;-68
2024/04/20 09:47:37;;;;;;;56.00;3.00;;;;;;;;;;5350908;26;20479;-69
2024/04/20 09:50:10;;;;;;;57.50;3.30;;;;;;;;;;5351336;26;20603;-69
2024/04/20 09:52:43;;;;;;;57.67;3.57;;;;;;;;;;5349636;26;20531;-68
2024/04/20 09:55:14;;;;;;;58.27;4.50;;;;;;;;;;5350372;26;20479;-68
2024/04/20 09:57:43;;;;;;;56.60;3.70;;;;;;;;;;5351183;26;20483;-68
2024/04/20 10:00:13;;;;;;;56.80;3.70;;;;;;;;;;5350858;26;20484;-69
2024/04/20 10:02:45;;;;;;;60.00;4.27;;;;;;;;;;5348919;26;20483;-69
2024/04/20 10:05:14;;;;;;;55.93;3.53;;;;;;;;;;5347781;26;20531;-69
2024/04/20 10:07:43;;;;;;;58.37;4.60;;;;;;;;;;5349056;26;20484;-69
2024/04/20 10:10:13;;;;;;;57.27;4.03;;;;;;;;;;5349893;26;20536;-69
2024/04/20 10:12:44;;;;;;;56.40;4.07;;;;;;;;;;5350200;26;20594;-69
2024/04/20 10:15:13;;;;;;;57.67;3.70;;;;;;;;;;5349879;26;20484;-69
2024/04/20 10:17:44;;;;;;;56.60;3.10;;;;;;;;;;5351727;26;20471;-69
2024/04/20 10:20:13;;;;;;;57.33;3.10;;;;;;;;;;5353475;26;20559;-69
2024/04/20 10:22:42;;;;;;;58.00;3.67;;;;;;;;;;5353814;26;20876;-69
2024/04/20 10:25:14;;;;;;;57.30;3.53;;;;;;;;;;5352600;26;20534;-69
2024/04/20 10:27:43;;;;;;;58.30;2.93;;;;;;;;;;5352255;26;20476;-69
2024/04/20 10:30:12;;;;;;;57.13;3.47;;;;;;;;;;5351230;26;20609;-69
2024/04/20 10:32:41;;;;;;;57.37;2.93;;;;;;;;;;5351482;26;20467;-69
2024/04/20 10:35:13;;;;;;;58.93;3.23;;;;;;;;;;5352522;26;20574;-69
2024/04/20 10:37:42;;;;;;;60.50;3.30;;;;;;;;;;5352756;26;20483;-69
2024/04/20 10:40:11;;;;;;;58.10;2.93;;;;;;;;;;5352767;26;20602;-68
2024/04/20 10:42:40;;;;;;;56.90;3.30;;;;;;;;;;5352257;26;21078;-69
2024/04/20 10:45:10;;;;;;;57.80;3.60;;;;;;;;;;5352729;26;20539;-68
2024/04/20 10:47:39;;;;;;;57.93;3.37;;;;;;;;;;5352602;26;21002;-68
2024/04/20 10:50:08;;;;;;;56.93;3.10;;;;;;;;;;5352257;26;20475;-69
2024/04/20 10:52:39;;;;;;;57.47;3.07;;;;;;;;;;5352242;26;20527;-70
2024/04/20 10:55:14;;;;;;;59.33;3.00;;;;;;;;;;5352239;26;20467;-68
2024/04/20 10:57:42;;;;;;;57.13;3.33;;;;;;;;;;5351620;26;20479;-68
2024/04/20 11:00:12;;;;;;;58.20;2.90;;;;;;;;;;5353211;26;20464;-69
2024/04/20 11:02:41;;;;;;;56.87;3.17;;;;;;;;;;5353318;26;20490;-70
2024/04/20 11:05:10;;;;;;;57.37;3.10;;;;;;;;;;5352285;26;20657;-69
2024/04/20 11:07:42;;;;;;;57.67;3.57;;;;;;;;;;5352719;26;20480;-69
2024/04/20 11:10:10;;;;;;;56.47;3.10;;;;;;;;;;5353460;26;20519;-67
2024/04/20 11:12:39;;;;;;;58.27;3.27;;;;;;;;;;5348514;26;20551;-67
2024/04/20 11:15:08;;;;;;;59.00;3.13;;;;;;;;;;5350781;26;20479;-67
2024/04/20 11:17:37;;;;;;;58.67;3.30;;;;;;;;;;5351986;26;20869;-68
2024/04/20 11:20:06;;;;;;;55.93;2.57;;;;;;;;;;5352574;26;20496;-68
2024/04/20 11:22:35;;;;;;;57.40;3.00;;;;;;;;;;5352328;26;20483;-68
2024/04/20 11:25:13;;;;;;;57.60;2.97;;;;;;;;;;5352835;26;20487;-67
2024/04/20 11:27:45;;;;;;;56.90;2.87;;;;;;;;;;5352224;26;20487;-67
2024/04/20 11:30:15;;;;;;;56.07;2.97;;;;;;;;;;5350978;26;20902;-67
2024/04/20 11:32:44;;;;;;;57.13;3.13;;;;;;;;;;5351858;26;20526;-67
2024/04/20 11:35:13;;;;;;;56.43;2.83;;;;;;;;;;5351848;26;20924;-68
2024/04/20 11:37:42;;;;;;;59.10;3.70;;;;;;;;;;5351348;26;20872;-68
2024/04/20 11:40:14;;;;;;;56.40;3.20;;;;;;;;;;5352014;26;20475;-68
2024/04/20 11:42:44;;;;;;;57.07;3.40;;;;;;;;;;5351181;26;21017;-67
2024/04/20 11:45:15;;;;;;;58.10;3.50;;;;;;;;;;5351438;26;20540;-68
2024/04/20 11:47:44;;;;;;;56.47;2.73;;;;;;;;;;5350456;26;20987;-68
2024/04/20 11:50:17;;;;;;;57.53;3.10;;;;;;;;;;5350431;26;20523;-67
2024/04/20 11:55:41;;;;;;;59.60;3.63;;;;;;;;;;5354501;26;20563;-68
2024/04/20 11:58:10;;;;;;;58.33;3.40;;;;;;;;;;5350372;26;20495;-68
2024/04/20 12:00:39;;;;;;;56.70;3.17;;;;;;;;;;5349591;26;20483;-68
2024/04/20 12:03:08;;;;;;;57.17;3.17;;;;;;;;;;5347243;26;20523;-68
2024/04/20 12:05:36;;;;;;;58.07;3.57;;;;;;;;;;5348240;26;20472;-68
2024/04/20 12:08:05;;;;;;;58.17;3.30;;;;;;;;;;5349929;26;20824;-68
2024/04/20 12:10:34;;;;;;;56.40;3.10;;;;;;;;;;5347907;26;20495;-68
2024/04/20 12:13:05;;;;;;;57.37;3.07;;;;;;;;;;5348844;26;20584;-69
2024/04/20 12:15:34;;;;;;;58.30;3.30;;;;;;;;;;5348407;26;20472;-68
2024/04/20 12:18:03;;;;;;;56.23;2.87;;;;;;;;;;5348004;26;20495;-68
2024/04/20 12:20:32;;;;;;;56.50;3.17;;;;;;;;;;5334301;26;20476;-68
2024/04/20 12:23:00;;;;;;;58.70;3.20;;;;;;;;;;5347747;26;20472;-67
2024/04/20 12:25:29;;;;;;;57.87;2.90;;;;;;;;;;5348092;26;20487;-68
2024/04/20 12:27:58;;;;;;;56.63;2.70;;;;;;;;;;5347500;26;21061;-70
2024/04/20 12:30:30;;;;;;;58.67;2.90;;;;;;;;;;5348609;26;20499;-68
2024/04/20 12:32:59;;;;;;;58.80;2.97;;;;;;;;;;5348484;26;20476;-68
2024/04/20 12:35:28;;;;;;;59.37;3.50;;;;;;;;;;5348522;26;20464;-68
2024/04/20 12:37:57;;;;;;;58.30;2.70;;;;;;;;;;5348422;26;20487;-70
2024/04/20 12:40:25;;;;;;;57.30;3.33;;;;;;;;;;5348048;26;20565;-68
2024/04/20 12:42:54;;;;;;;57.40;2.90;;;;;;;;;;5349729;26;20487;-68
2024/04/20 12:45:26;;;;;;;57.00;2.90;;;;;;;;;;5347189;26;20483;-68
2024/04/20 12:47:58;;;;;;;57.60;3.20;;;;;;;;;;5346590;26;20483;-68
2024/04/20 12:50:26;;;;;;;57.00;3.20;;;;;;;;;;5346648;26;20475;-67
2024/04/20 12:52:55;;;;;;;61.13;3.23;;;;;;;;;;5346916;26;20487;-68
2024/04/20 12:55:24;;;;;;;57.43;3.00;;;;;;;;;;5345105;26;20587;-69
2024/04/20 12:57:53;;;;;;;61.93;3.30;;;;;;;;;;5345066;26;20536;-68
2024/04/20 13:00:21;;;;;;;58.40;3.07;;;;;;;;;;5345080;26;20479;-69
2024/04/20 13:02:50;;;;;;;56.43;3.30;;;;;;;;;;5343793;26;20480;-68
2024/04/20 13:05:22;;;;;;;57.17;3.00;;;;;;;;;;5345227;26;20487;-69
2024/04/20 13:07:51;;;;;;;55.97;2.57;;;;;;;;;;5343933;26;20479;-68
2024/04/20 13:10:19;;;;;;;57.37;2.83;;;;;;;;;;5345652;26;20474;-68
2024/04/20 13:12:48;;;;;;;56.97;3.00;;;;;;;;;;5346031;26;21135;-68
2024/04/20 13:15:17;;;;;;;56.10;2.30;;;;;;;;;;5345913;26;20476;-68
2024/04/20 13:17:46;;;;;;;58.87;2.43;;;;;;;;;;5344559;26;20545;-68
2024/04/20 13:20:15;;;;;;;56.40;3.00;;;;;;;;;;5345093;26;20982;-68
2024/04/20 13:22:46;;;;;;;57.20;2.50;;;;;;;;;;5345810;26;20600;-68
2024/04/20 13:25:15;;;;;;;55.77;2.20;;;;;;;;;;5345495;26;20548;-68
2024/04/20 13:27:44;;;;;;;56.50;2.40;;;;;;;;;;5343804;26;20533;-68
2024/04/20 13:30:12;;;;;;;58.40;2.40;;;;;;;;;;5342742;26;20588;-68
2024/04/20 13:32:41;;;;;;;58.27;2.70;;;;;;;;;;5344434;26;20541;-68
2024/04/20 13:35:10;;;;;;;57.40;2.80;;;;;;;;;;5344132;26;20580;-68
2024/04/20 13:37:39;;;;;;;57.07;2.50;;;;;;;;;;5331572;26;20635;-68
2024/04/20 13:40:11;;;;;;;56.10;3.00;;;;;;;;;;5345269;26;20560;-68
2024/04/20 13:42:39;;;;;;;59.07;3.53;;;;;;;;;;5331868;26;20479;-68
2024/04/20 13:45:09;;;;;;;56.53;2.93;;;;;;;;;;5344319;26;21031;-68
2024/04/20 13:47:37;;;;;;;57.00;2.30;;;;;;;;;;5343847;26;20551;-68
2024/04/20 13:50:06;;;;;;;55.97;2.47;;;;;;;;;;5345677;26;20599;-67
2024/04/20 13:52:35;;;;;;;56.97;2.90;;;;;;;;;;5346747;26;20585;-67
2024/04/20 13:55:04;;;;;;;56.60;2.70;;;;;;;;;;5340697;26;20479;-68
2024/04/20 13:57:35;;;;;;;57.13;2.47;;;;;;;;;;5346875;26;20871;-68
2024/04/20 14:00:04;;;;;;;58.67;2.60;;;;;;;;;;5347750;26;20848;-68
2024/04/20 14:02:33;;;;;;;56.10;2.63;;;;;;;;;;5345620;26;20547;-69
2024/04/20 14:05:01;;;;;;;56.43;2.67;;;;;;;;;;5350857;26;21016;-68
2024/04/20 14:07:30;;;;;;;56.30;3.10;;;;;;;;;;5350087;26;20589;-68
2024/04/20 14:09:59;;;;;;;57.33;3.00;;;;;;;;;;5350734;26;20572;-68
2024/04/20 14:12:28;;;;;;;55.90;2.50;;;;;;;;;;5350792;26;20562;-68
2024/04/20 14:14:59;;;;;;;56.43;2.57;;;;;;;;;;5348531;26;20471;-68
2024/04/20 14:17:28;;;;;;;56.37;2.50;;;;;;;;;;5348769;26;20490;-68
2024/04/20 14:19:57;;;;;;;57.33;3.57;;;;;;;;;;5334359;26;20950;-68
2024/04/20 14:22:25;;;;;;;56.70;2.63;;;;;;;;;;5347644;26;20481;-68
2024/04/20 14:24:54;;;;;;;56.10;2.57;;;;;;;;;;5348410;26;20596;-69
2024/04/20 14:27:23;;;;;;;56.27;2.90;;;;;;;;;;5348982;26;20616;-68
2024/04/20 14:29:52;;;;;;;58.27;2.93;;;;;;;;;;5349325;26;20468;-68
2024/04/20 14:32:23;;;;;;;55.90;3.00;;;;;;;;;;5350438;26;20539;-68
2024/04/20 14:34:52;;;;;;;56.30;2.83;;;;;;;;;;5350071;26;20471;-68
2024/04/20 14:37:21;;;;;;;58.13;2.50;;;;;;;;;;5349135;26;21122;-68
2024/04/20 14:39:53;;;;;;;57.60;3.20;;;;;;;;;;5350690;26;20504;-68
2024/04/20 14:42:22;;;;;;;57.27;3.10;;;;;;;;;;5351009;26;20480;-68
2024/04/20 14:44:51;;;;;;;60.30;2.90;;;;;;;;;;5351287;26;20495;-68
2024/04/20 14:47:20;;;;;;;56.93;2.80;;;;;;;;;;5349299;26;20528;-68